sensor_id;sensor_type;location;lat;lon;timestamp;temperature;humidity
41944;DHT22;27636;52.610;13.244;2022-10-24T00:04:09;13.10;99.90
41944;DHT22;27636;52.610;13.244;2022-10-24T00:09:13;13.10;99.90
41944;DHT22;27636;52.610;13.244;2022-10-24T00:14:17;13.10;99.90
41944;DHT22;27636;52.610;13.244;2022-10-24T00:19:20;13.00;99.90
41944;DHT22;27636;52.610;13.244;2022-10-24T00:24:24;13.00;99.90
41944;DHT22;27636;52.610;13.244;2022-10-24T00:29:27;13.00;99.90
41944;DHT22;27636;52.610;13.244;2022-10-24T00:34:31;13.00;99.90
41944;DHT22;27636;52.610;13.244;2022-10-24T00:39:35;13.00;99.90
41944;DHT22;27636;52.610;13.244;2022-10-24T00:44:40;13.00;99.90
41944;DHT22;27636;52.610;13.244;2022-10-24T00:49:46;12.90;99.90
41944;DHT22;27636;52.610;13.244;2022-10-24T00:54:53;12.90;99.90
41944;DHT22;27636;52.610;13.244;2022-10-24T01:00:00;12.90;99.90
41944;DHT22;27636;52.610;13.244;2022-10-24T01:05:07;12.80;99.90
41944;DHT22;27636;52.610;13.244;2022-10-24T01:10:22;12.80;99.90
41944;DHT22;27636;52.610;13.244;2022-10-24T01:15:34;12.80;99.90
41944;DHT22;27636;52.610;13.244;2022-10-24T01:20:59;12.80;99.90
41944;DHT22;27636;52.610;13.244;2022-10-24T02:11:25;13.00;99.90
41944;DHT22;27636;52.610;13.244;2022-10-24T02:16:29;12.80;99.90
41944;DHT22;27636;52.610;13.244;2022-10-24T02:21:37;12.60;99.90
41944;DHT22;27636;52.610;13.244;2022-10-24T02:26:48;12.50;99.90
41944;DHT22;27636;52.610;13.244;2022-10-24T02:31:56;12.30;99.90
41944;DHT22;27636;52.610;13.244;2022-10-24T02:37:01;12.20;99.90
41944;DHT22;27636;52.610;13.244;2022-10-24T02:42:08;12.10;99.90
41944;DHT22;27636;52.610;13.244;2022-10-24T02:47:14;12.10;99.90
41944;DHT22;27636;52.610;13.244;2022-10-24T02:52:18;12.10;99.90
41944;DHT22;27636;52.610;13.244;2022-10-24T03:40:36;11.10;99.90
41944;DHT22;27636;52.610;13.244;2022-10-24T03:45:40;10.90;99.90
41944;DHT22;27636;52.610;13.244;2022-10-24T03:50:44;10.90;99.90
41944;DHT22;27636;52.610;13.244;2022-10-24T03:55:48;11.00;99.90
41944;DHT22;27636;52.610;13.244;2022-10-24T04:00:52;10.90;99.90
41944;DHT22;27636;52.610;13.244;2022-10-24T04:05:55;10.80;99.90
41944;DHT22;27636;52.610;13.244;2022-10-24T04:11:00;10.80;99.90
41944;DHT22;27636;52.610;13.244;2022-10-24T04:16:03;10.90;99.90
41944;DHT22;27636;52.610;13.244;2022-10-24T04:21:06;10.70;99.90
41944;DHT22;27636;52.610;13.244;2022-10-24T04:26:16;10.70;99.90
41944;DHT22;27636;52.610;13.244;2022-10-24T04:31:20;10.50;99.90
41944;DHT22;27636;52.610;13.244;2022-10-24T04:36:25;10.60;99.90
41944;DHT22;27636;52.610;13.244;2022-10-24T04:41:30;10.50;99.90
41944;DHT22;27636;52.610;13.244;2022-10-24T04:46:35;10.80;99.90
41944;DHT22;27636;52.610;13.244;2022-10-24T04:51:38;10.70;99.90
41944;DHT22;27636;52.610;13.244;2022-10-24T04:56:42;10.70;99.90
41944;DHT22;27636;52.610;13.244;2022-10-24T05:01:46;10.70;99.90
41944;DHT22;27636;52.610;13.244;2022-10-24T05:06:49;10.70;99.90
41944;DHT22;27636;52.610;13.244;2022-10-24T05:11:54;10.60;99.90
41944;DHT22;27636;52.610;13.244;2022-10-24T05:16:58;10.60;99.90
41944;DHT22;27636;52.610;13.244;2022-10-24T05:22:01;10.70;99.90
41944;DHT22;27636;52.610;13.244;2022-10-24T05:27:10;10.80;99.90
41944;DHT22;27636;52.610;13.244;2022-10-24T05:32:13;11.10;99.90
41944;DHT22;27636;52.610;13.244;2022-10-24T05:37:16;11.30;99.90
41944;DHT22;27636;52.610;13.244;2022-10-24T05:42:21;11.30;99.90
41944;DHT22;27636;52.610;13.244;2022-10-24T05:47:24;11.20;99.90
41944;DHT22;27636;52.610;13.244;2022-10-24T05:52:32;11.40;99.90
41944;DHT22;27636;52.610;13.244;2022-10-24T05:57:39;11.40;99.90
41944;DHT22;27636;52.610;13.244;2022-10-24T06:02:42;11.30;99.90
41944;DHT22;27636;52.610;13.244;2022-10-24T06:07:46;11.20;99.90
41944;DHT22;27636;52.610;13.244;2022-10-24T06:12:52;11.30;99.90
41944;DHT22;27636;52.610;13.244;2022-10-24T06:18:20;11.40;99.90
41944;DHT22;27636;52.610;13.244;2022-10-24T06:23:23;11.40;99.90
41944;DHT22;27636;52.610;13.244;2022-10-24T06:28:28;11.60;99.90
41944;DHT22;27636;52.610;13.244;2022-10-24T06:33:31;11.60;99.90
41944;DHT22;27636;52.610;13.244;2022-10-24T06:38:34;11.70;99.90
41944;DHT22;27636;52.610;13.244;2022-10-24T06:43:39;11.70;99.90
41944;DHT22;27636;52.610;13.244;2022-10-24T06:48:44;11.90;99.90
41944;DHT22;27636;52.610;13.244;2022-10-24T06:53:47;12.00;99.90
41944;DHT22;27636;52.610;13.244;2022-10-24T06:58:52;12.10;99.90
41944;DHT22;27636;52.610;13.244;2022-10-24T07:03:56;12.30;99.90
41944;DHT22;27636;52.610;13.244;2022-10-24T07:09:00;12.40;99.90
41944;DHT22;27636;52.610;13.244;2022-10-24T07:14:05;12.70;99.90
41944;DHT22;27636;52.610;13.244;2022-10-24T07:19:11;12.90;99.90
41944;DHT22;27636;52.610;13.244;2022-10-24T07:24:14;13.10;99.90
41944;DHT22;27636;52.610;13.244;2022-10-24T07:29:18;13.40;99.90
41944;DHT22;27636;52.610;13.244;2022-10-24T07:34:22;13.60;99.90
41944;DHT22;27636;52.610;13.244;2022-10-24T07:39:25;13.80;99.90
41944;DHT22;27636;52.610;13.244;2022-10-24T07:44:30;14.00;99.90
41944;DHT22;27636;52.610;13.244;2022-10-24T07:49:33;14.30;99.90
41944;DHT22;27636;52.610;13.244;2022-10-24T07:54:37;14.50;99.90
41944;DHT22;27636;52.610;13.244;2022-10-24T07:59:41;14.80;99.90
41944;DHT22;27636;52.610;13.244;2022-10-24T08:04:44;15.00;99.90
41944;DHT22;27636;52.610;13.244;2022-10-24T08:09:48;15.30;99.90
41944;DHT22;27636;52.610;13.244;2022-10-24T08:14:54;15.50;99.90
41944;DHT22;27636;52.610;13.244;2022-10-24T08:19:57;15.90;99.90
41944;DHT22;27636;52.610;13.244;2022-10-24T08:25:01;16.20;99.90
41944;DHT22;27636;52.610;13.244;2022-10-24T08:30:07;16.40;99.90
41944;DHT22;27636;52.610;13.244;2022-10-24T08:35:14;16.80;99.90
41944;DHT22;27636;52.610;13.244;2022-10-24T08:40:18;17.10;99.90
41944;DHT22;27636;52.610;13.244;2022-10-24T08:45:29;17.30;99.90
41944;DHT22;27636;52.610;13.244;2022-10-24T08:50:41;17.10;99.90
41944;DHT22;27636;52.610;13.244;2022-10-24T08:55:47;17.20;99.90
41944;DHT22;27636;52.610;13.244;2022-10-24T09:00:56;17.40;99.90
41944;DHT22;27636;52.610;13.244;2022-10-24T09:06:02;17.40;99.90
41944;DHT22;27636;52.610;13.244;2022-10-24T09:11:12;17.70;99.90
41944;DHT22;27636;52.610;13.244;2022-10-24T09:16:20;18.10;99.90
41944;DHT22;27636;52.610;13.244;2022-10-24T09:21:24;18.30;99.90
41944;DHT22;27636;52.610;13.244;2022-10-24T09:26:29;18.20;99.90
41944;DHT22;27636;52.610;13.244;2022-10-24T09:31:35;18.40;99.90
41944;DHT22;27636;52.610;13.244;2022-10-24T09:36:39;18.50;99.90
41944;DHT22;27636;52.610;13.244;2022-10-24T09:41:45;18.40;99.90
41944;DHT22;27636;52.610;13.244;2022-10-24T09:46:50;18.20;99.90
41944;DHT22;27636;52.610;13.244;2022-10-24T09:51:59;18.50;99.90
41944;DHT22;27636;52.610;13.244;2022-10-24T09:57:10;18.70;99.90
41944;DHT22;27636;52.610;13.244;2022-10-24T10:02:21;18.50;99.90
41944;DHT22;27636;52.610;13.244;2022-10-24T10:07:27;18.50;99.90
41944;DHT22;27636;52.610;13.244;2022-10-24T10:12:33;18.60;99.90
41944;DHT22;27636;52.610;13.244;2022-10-24T10:17:48;18.50;99.90
41944;DHT22;27636;52.610;13.244;2022-10-24T10:22:51;18.60;99.90
41944;DHT22;27636;52.610;13.244;2022-10-24T10:27:55;18.70;99.90
41944;DHT22;27636;52.610;13.244;2022-10-24T10:33:13;19.00;99.90
41944;DHT22;27636;52.610;13.244;2022-10-24T10:38:36;18.90;99.90
41944;DHT22;27636;52.610;13.244;2022-10-24T10:43:47;19.30;99.90
41944;DHT22;27636;52.610;13.244;2022-10-24T10:49:02;19.10;99.90
41944;DHT22;27636;52.610;13.244;2022-10-24T10:54:15;19.10;99.90
41944;DHT22;27636;52.610;13.244;2022-10-24T10:59:33;19.00;99.90
41944;DHT22;27636;52.610;13.244;2022-10-24T11:04:45;18.90;99.90
41944;DHT22;27636;52.610;13.244;2022-10-24T11:09:53;19.00;99.90
41944;DHT22;27636;52.610;13.244;2022-10-24T11:15:03;19.00;99.90
41944;DHT22;27636;52.610;13.244;2022-10-24T11:20:17;19.00;99.90
41944;DHT22;27636;52.610;13.244;2022-10-24T11:25:22;18.90;99.90
41944;DHT22;27636;52.610;13.244;2022-10-24T11:30:40;18.90;99.90
41944;DHT22;27636;52.610;13.244;2022-10-24T11:36:00;19.10;99.90
41944;DHT22;27636;52.610;13.244;2022-10-24T11:46:43;19.20;99.90
41944;DHT22;27636;52.610;13.244;2022-10-24T11:51:56;19.40;99.90
41944;DHT22;27636;52.610;13.244;2022-10-24T11:57:04;19.30;99.90
41944;DHT22;27636;52.610;13.244;2022-10-24T12:15:39;19.40;99.90
41944;DHT22;27636;52.610;13.244;2022-10-24T12:20:49;19.50;99.90
41944;DHT22;27636;52.610;13.244;2022-10-24T12:26:13;19.40;99.90
41944;DHT22;27636;52.610;13.244;2022-10-24T12:31:26;19.60;99.90
41944;DHT22;27636;52.610;13.244;2022-10-24T12:37:02;19.80;99.90
41944;DHT22;27636;52.610;13.244;2022-10-24T12:42:14;19.90;99.90
41944;DHT22;27636;52.610;13.244;2022-10-24T12:47:36;19.90;99.90
41944;DHT22;27636;52.610;13.244;2022-10-24T12:53:00;19.70;99.90
41944;DHT22;27636;52.610;13.244;2022-10-24T12:58:18;19.80;99.90
41944;DHT22;27636;52.610;13.244;2022-10-24T13:03:38;20.10;99.90
41944;DHT22;27636;52.610;13.244;2022-10-24T13:08:56;20.60;99.90
41944;DHT22;27636;52.610;13.244;2022-10-24T13:19:35;20.90;99.90
41944;DHT22;27636;52.610;13.244;2022-10-24T13:24:39;21.60;99.90
41944;DHT22;27636;52.610;13.244;2022-10-24T13:30:03;21.30;99.90
41944;DHT22;27636;52.610;13.244;2022-10-24T13:35:14;21.10;99.90
41944;DHT22;27636;52.610;13.244;2022-10-24T13:40:27;21.20;99.90
41944;DHT22;27636;52.610;13.244;2022-10-24T13:45:35;21.40;99.90
41944;DHT22;27636;52.610;13.244;2022-10-24T13:50:47;20.70;99.90
41944;DHT22;27636;52.610;13.244;2022-10-24T13:55:53;20.20;99.90
41944;DHT22;27636;52.610;13.244;2022-10-24T14:01:00;19.70;99.90
41944;DHT22;27636;52.610;13.244;2022-10-24T14:06:06;19.50;99.90
41944;DHT22;27636;52.610;13.244;2022-10-24T14:11:15;19.20;99.90
41944;DHT22;27636;52.610;13.244;2022-10-24T14:16:26;19.40;99.90
41944;DHT22;27636;52.610;13.244;2022-10-24T14:21:40;19.30;99.90
41944;DHT22;27636;52.610;13.244;2022-10-24T14:26:44;19.30;99.90
41944;DHT22;27636;52.610;13.244;2022-10-24T14:31:54;19.20;99.90
41944;DHT22;27636;52.610;13.244;2022-10-24T14:37:00;19.20;99.90
41944;DHT22;27636;52.610;13.244;2022-10-24T14:42:12;19.10;99.90
41944;DHT22;27636;52.610;13.244;2022-10-24T14:47:24;19.00;99.90
41944;DHT22;27636;52.610;13.244;2022-10-24T15:07:39;18.50;99.90
41944;DHT22;27636;52.610;13.244;2022-10-24T15:13:10;18.00;99.90
41944;DHT22;27636;52.610;13.244;2022-10-24T15:18:17;17.90;99.90
41944;DHT22;27636;52.610;13.244;2022-10-24T15:23:26;17.90;99.90
41944;DHT22;27636;52.610;13.244;2022-10-24T15:28:36;17.60;99.90
41944;DHT22;27636;52.610;13.244;2022-10-24T15:33:40;17.50;99.90
41944;DHT22;27636;52.610;13.244;2022-10-24T15:38:45;17.30;99.90
41944;DHT22;27636;52.610;13.244;2022-10-24T15:43:50;17.30;99.90
41944;DHT22;27636;52.610;13.244;2022-10-24T15:48:54;17.20;99.90
41944;DHT22;27636;52.610;13.244;2022-10-24T15:53:58;17.20;99.90
41944;DHT22;27636;52.610;13.244;2022-10-24T15:59:04;17.00;99.90
41944;DHT22;27636;52.610;13.244;2022-10-24T16:04:08;17.00;99.90
41944;DHT22;27636;52.610;13.244;2022-10-24T16:09:15;16.90;99.90
41944;DHT22;27636;52.610;13.244;2022-10-24T16:14:19;16.70;99.90
41944;DHT22;27636;52.610;13.244;2022-10-24T16:19:24;16.70;99.90
41944;DHT22;27636;52.610;13.244;2022-10-24T16:24:32;16.40;99.90
41944;DHT22;27636;52.610;13.244;2022-10-24T16:29:35;16.40;99.90
41944;DHT22;27636;52.610;13.244;2022-10-24T16:34:38;16.40;99.90
41944;DHT22;27636;52.610;13.244;2022-10-24T16:39:43;16.40;99.90
41944;DHT22;27636;52.610;13.244;2022-10-24T16:44:46;16.50;99.90
41944;DHT22;27636;52.610;13.244;2022-10-24T16:49:50;16.60;99.90
41944;DHT22;27636;52.610;13.244;2022-10-24T16:54:58;16.70;99.90
41944;DHT22;27636;52.610;13.244;2022-10-24T17:00:01;16.60;99.90
41944;DHT22;27636;52.610;13.244;2022-10-24T17:05:04;16.60;99.90
41944;DHT22;27636;52.610;13.244;2022-10-24T17:10:10;16.40;99.90
41944;DHT22;27636;52.610;13.244;2022-10-24T17:15:14;16.50;99.90
41944;DHT22;27636;52.610;13.244;2022-10-24T17:20:24;16.60;99.90
41944;DHT22;27636;52.610;13.244;2022-10-24T17:25:29;16.50;99.90
41944;DHT22;27636;52.610;13.244;2022-10-24T17:30:32;16.40;99.90
41944;DHT22;27636;52.610;13.244;2022-10-24T17:35:39;16.30;99.90
41944;DHT22;27636;52.610;13.244;2022-10-24T17:40:46;16.30;99.90
41944;DHT22;27636;52.610;13.244;2022-10-24T17:45:51;16.20;99.90
41944;DHT22;27636;52.610;13.244;2022-10-24T17:50:55;16.20;99.90
41944;DHT22;27636;52.610;13.244;2022-10-24T17:56:01;16.10;99.90
41944;DHT22;27636;52.610;13.244;2022-10-24T18:01:05;16.00;99.90
41944;DHT22;27636;52.610;13.244;2022-10-24T18:06:09;16.00;99.90
41944;DHT22;27636;52.610;13.244;2022-10-24T18:11:16;16.00;99.90
41944;DHT22;27636;52.610;13.244;2022-10-24T18:16:20;15.80;99.90
41944;DHT22;27636;52.610;13.244;2022-10-24T18:21:24;15.90;99.90
41944;DHT22;27636;52.610;13.244;2022-10-24T18:26:30;15.80;99.90
41944;DHT22;27636;52.610;13.244;2022-10-24T18:31:34;15.80;99.90
41944;DHT22;27636;52.610;13.244;2022-10-24T18:36:37;15.70;99.90
41944;DHT22;27636;52.610;13.244;2022-10-24T18:41:45;15.60;99.90
41944;DHT22;27636;52.610;13.244;2022-10-24T18:47:14;15.80;99.90
41944;DHT22;27636;52.610;13.244;2022-10-24T18:52:29;15.80;99.90
41944;DHT22;27636;52.610;13.244;2022-10-24T18:57:36;15.80;99.90
41944;DHT22;27636;52.610;13.244;2022-10-24T19:02:47;15.80;99.90
41944;DHT22;27636;52.610;13.244;2022-10-24T19:07:51;15.70;99.90
41944;DHT22;27636;52.610;13.244;2022-10-24T19:12:56;15.60;99.90
41944;DHT22;27636;52.610;13.244;2022-10-24T19:18:00;15.50;99.90
41944;DHT22;27636;52.610;13.244;2022-10-24T19:23:03;15.50;99.90
41944;DHT22;27636;52.610;13.244;2022-10-24T19:28:14;15.60;99.90
41944;DHT22;27636;52.610;13.244;2022-10-24T19:33:18;15.40;99.90
41944;DHT22;27636;52.610;13.244;2022-10-24T19:38:21;15.40;99.90
41944;DHT22;27636;52.610;13.244;2022-10-24T19:43:28;15.30;99.90
41944;DHT22;27636;52.610;13.244;2022-10-24T19:48:34;15.40;99.90
41944;DHT22;27636;52.610;13.244;2022-10-24T19:53:40;15.30;99.90
41944;DHT22;27636;52.610;13.244;2022-10-24T19:58:45;15.30;99.90
41944;DHT22;27636;52.610;13.244;2022-10-24T20:03:49;15.30;99.90
41944;DHT22;27636;52.610;13.244;2022-10-24T20:08:53;15.10;99.90
41944;DHT22;27636;52.610;13.244;2022-10-24T20:13:58;15.30;99.90
41944;DHT22;27636;52.610;13.244;2022-10-24T20:19:01;15.40;99.90
41944;DHT22;27636;52.610;13.244;2022-10-24T20:24:06;15.30;99.90
41944;DHT22;27636;52.610;13.244;2022-10-24T20:29:11;15.20;99.90
41944;DHT22;27636;52.610;13.244;2022-10-24T20:34:17;15.00;99.90
41944;DHT22;27636;52.610;13.244;2022-10-24T20:39:20;14.90;99.90
41944;DHT22;27636;52.610;13.244;2022-10-24T20:44:25;14.80;99.90
41944;DHT22;27636;52.610;13.244;2022-10-24T20:49:28;14.60;99.90
41944;DHT22;27636;52.610;13.244;2022-10-24T20:54:32;14.50;99.90
41944;DHT22;27636;52.610;13.244;2022-10-24T20:59:36;14.50;99.90
41944;DHT22;27636;52.610;13.244;2022-10-24T21:04:40;14.30;99.90
41944;DHT22;27636;52.610;13.244;2022-10-24T21:09:43;14.20;99.90
41944;DHT22;27636;52.610;13.244;2022-10-24T21:14:48;14.20;99.90
41944;DHT22;27636;52.610;13.244;2022-10-24T21:19:51;14.10;99.90
41944;DHT22;27636;52.610;13.244;2022-10-24T21:24:54;14.20;99.90
41944;DHT22;27636;52.610;13.244;2022-10-24T21:29:59;14.20;99.90
41944;DHT22;27636;52.610;13.244;2022-10-24T21:35:02;13.90;99.90
41944;DHT22;27636;52.610;13.244;2022-10-24T21:40:07;13.80;99.90
41944;DHT22;27636;52.610;13.244;2022-10-24T21:45:11;13.90;99.90
41944;DHT22;27636;52.610;13.244;2022-10-24T21:50:14;13.90;99.90
41944;DHT22;27636;52.610;13.244;2022-10-24T21:55:18;13.70;99.90
41944;DHT22;27636;52.610;13.244;2022-10-24T22:00:23;13.60;99.90
41944;DHT22;27636;52.610;13.244;2022-10-24T22:20:38;13.90;99.90
41944;DHT22;27636;52.610;13.244;2022-10-24T22:25:42;13.90;99.90
41944;DHT22;27636;52.610;13.244;2022-10-24T23:53:13;11.60;99.90
41944;DHT22;27636;52.610;13.244;2022-10-24T23:58:18;11.60;99.90
